x

Fripp Nearshore (frp 2) (41033) Weather Station

5:08pm - Thu 23rd Nov 2017 All times are EST. -5 hours from GMT.

  • Wind
    13mph, 22mph gusts
  • Sea Temp 61°f
  • Air Temp 50°f
  • Sea Pressure 1014mb
  • Fripp Nearshore (frp 2)
  • Fripp Nearshore (frp 2)

More Historic Weather Station data

Upgrade to MSW Pro to gain access to the past 30 days of data for over 8000 Wavebouys and Weather Stations around the globe.

Join

Comparision Forecast

View Surf forecast
   
Thu 11/23 5:08pm 13 22 mph 1014mb 61f 50f
4:08pm 13 29 mph 1013.8mb 62f 51f
3:08pm 16 29 mph 1013.4mb 62f 51f
2:08pm 13 22 mph 1014.7mb 62f 52f
1:08pm 13 27 mph 1015.1mb 62f 53f
12:08pm 11 25 mph 1015.8mb 62f 53f
11:08am 11 27 mph 1016.8mb 62f 52f
10:08am 11 22 mph 1017.4mb 62f 52f
9:08am 13 25 mph 1018.4mb 62f 53f
8:08am 13 31 mph 1017.4mb 62f 52f
7:08am 13 29 mph 1016.6mb 62f 54f
6:08am 13 27 mph 1015.6mb 62f 55f
5:08am 16 29 mph 1015.6mb 62f 55f
4:08am 16 25 mph 1016mb 62f 57f
3:08am 16 27 mph 1015.9mb 62f 58f
2:08am 16 29 mph 1016mb 62f 58f
1:08am 18 31 mph 1016mb 63f 59f
12:08am 18 27 mph 1017.5mb 63f 59f
Wed 11/22 11:08pm 7 11 mph 1017.7mb 63f 59f
10:08pm 4 9 mph 1017.3mb 63f 58f
9:08pm  -  2 mph 1016.8mb 62f 58f
8:08pm  -  2 mph 1016.4mb 62f 59f
7:08pm 2 4 mph 1016.1mb 63f 60f
6:08pm 4 7 mph 1015.4mb 63f 60f
5:08pm 4 7 mph 1015.5mb 62f 60f
4:08pm 7 9 mph 1014.5mb 63f 63f
3:08pm 7 9 mph 1014.1mb 63f 64f
2:08pm 9 13 mph 1013.8mb 63f 62f
1:08pm  -  4 mph 1015mb 62f 68f
12:08pm 7 11 mph 1015.5mb 62f 64f
11:08am 9 16 mph 1016.1mb 62f 62f
10:08am 13 20 mph 1016.3mb 62f 59f
9:08am 11 18 mph 1016.3mb 62f 59f
8:08am 13 18 mph 1015.3mb 62f 58f
7:08am 16 22 mph 1014.7mb 61f 58f
6:08am 13 20 mph 1013.7mb 61f 58f
5:08am 11 20 mph 1013.4mb 61f 59f
4:08am 11 25 mph 1012.8mb 61f 59f
3:08am 11 22 mph 1013.6mb 61f 59f
12:08am 13 25 mph 1018.9mb 62f 60f
Tue 11/21 11:08pm 11 22 mph 1019.8mb 62f 61f
10:08pm 7 13 mph 1018.1mb 62f 60f
9:08pm 4 11 mph 1017.9mb 62f 60f
8:08pm 7 11 mph 1016.9mb 62f 60f
7:08pm 9 13 mph 1014.4mb 62f 63f
6:08pm 9 13 mph 1014.9mb 62f 62f
5:08pm 11 18 mph 1015.8mb 61f 60f
4:08pm 11 18 mph 1015.8mb 62f 60f
3:08pm 11 20 mph 1015.5mb 62f 60f
2:08pm 9 16 mph 1016.8mb 62f 61f
1:08pm 11 22 mph 1018.5mb 62f 61f
12:08pm 13 25 mph 1018.7mb 62f 62f
11:08am 13 25 mph 1019.8mb 62f 62f
10:08am 13 22 mph 1020.5mb 62f 62f
9:08am 13 25 mph 1020.4mb 62f 60f
8:08am 13 22 mph 1020.6mb 62f 58f
7:08am 11 20 mph 1020.2mb 62f 57f
6:08am 9 18 mph 1020.6mb 61f 56f
5:08am 9 20 mph 1020.4mb 61f 57f
4:08am 9 16 mph 1020.1mb 61f 57f
3:08am 11 18 mph 1020.4mb 61f 56f
2:08am 13 27 mph 1020.9mb 61f 56f
1:08am 11 22 mph 1021mb 61f 56f
12:08am 13 22 mph 1021.7mb 62f 59f
Mon 11/20 11:08pm 11 20 mph 1021.8mb 62f 59f
10:08pm 13 27 mph 1022.4mb 62f 58f
9:08pm 13 22 mph 1022.4mb 62f 58f
8:08pm 11 20 mph 1022.8mb 62f 57f
7:08pm 13 25 mph 1022.8mb 62f 56f
6:08pm 13 22 mph 1022.4mb 61f 55f
5:08pm 13 22 mph 1022.8mb 61f 56f
4:08pm 13 20 mph 1022.9mb 61f 56f
3:08pm 16 22 mph 1022.6mb 62f 56f
2:08pm 9 18 mph 1023mb 62f 56f
1:08pm 13 25 mph 1023mb 62f 56f
12:08pm 13 20 mph 1023mb 62f 56f
11:08am 16 27 mph 1024mb 62f 55f
10:08am 13 22 mph 1024.7mb 62f 54f
9:08am 13 29 mph 1023.5mb 62f 53f
8:08am 13 27 mph 1023mb 62f 53f
7:08am 13 27 mph 1021.1mb 62f 51f
6:08am 13 25 mph 1021.1mb 62f 49f
5:08am 11 22 mph 1021.1mb 62f 50f
4:08am 13 25 mph 1019.8mb 62f 50f
3:08am 16 29 mph 1020mb 62f 51f
2:08am 13 27 mph 1019.3mb 62f 51f
1:08am 13 22 mph 1018.9mb 62f 51f
12:08am 16 25 mph 1018.2mb 62f 52f